createdAt,value
2022-09-12T00:01:43.957Z,63.64
2022-09-12T00:04:12.491Z,63.43
2022-09-12T00:06:40.785Z,63.51
2022-09-12T00:09:12.412Z,63.53
2022-09-12T00:11:44.049Z,63.45
2022-09-12T00:14:16.403Z,63.37
2022-09-12T00:16:44.853Z,63.44
2022-09-12T00:19:13.226Z,63.40
2022-09-12T00:21:42.113Z,63.45
2022-09-12T00:24:11.721Z,63.58
2022-09-12T00:26:40.653Z,63.49
2022-09-12T00:29:21.400Z,63.53
2022-09-12T00:31:49.871Z,63.39
2022-09-12T00:34:18.238Z,63.52
2022-09-12T00:36:46.723Z,63.58
2022-09-12T00:39:17.105Z,63.56
2022-09-12T00:41:46.286Z,63.49
2022-09-12T00:44:23.653Z,63.58
2022-09-12T00:46:59.835Z,63.60
2022-09-12T00:49:46.191Z,63.61
2022-09-12T00:52:23.891Z,63.59
2022-09-12T00:55:21.246Z,63.57
2022-09-12T00:58:00.327Z,63.61
2022-09-12T01:00:30.603Z,63.63
2022-09-12T01:03:04.098Z,63.68
2022-09-12T01:05:36.164Z,63.66
2022-09-12T01:08:05.365Z,63.55
2022-09-12T01:10:37.800Z,64.04
2022-09-12T01:13:09.250Z,63.76
2022-09-12T01:15:39.667Z,63.67
2022-09-12T01:18:11.267Z,63.76
2022-09-12T01:20:52.445Z,63.72
2022-09-12T01:23:48.575Z,63.80
2022-09-12T01:26:48.841Z,63.79
2022-09-12T01:29:39.096Z,63.82
2022-09-12T01:32:39.113Z,63.90
2022-09-12T01:35:16.915Z,64.05
2022-09-12T01:38:13.758Z,63.95
2022-09-12T01:41:02.515Z,64.14
2022-09-12T01:43:32.138Z,64.24
2022-09-12T01:46:17.847Z,64.26
2022-09-12T01:48:56.135Z,64.26
2022-09-12T01:51:42.610Z,64.27
2022-09-12T01:54:21.053Z,64.33
2022-09-12T01:56:52.469Z,64.29
2022-09-12T01:59:30.221Z,64.30
2022-09-12T02:02:01.560Z,64.33
2022-09-12T02:04:45.264Z,64.36
2022-09-12T02:07:19.995Z,64.46
2022-09-12T02:09:57.432Z,64.42
2022-09-12T02:12:31.731Z,64.35
2022-09-12T02:15:05.404Z,64.31
2022-09-12T02:17:39.420Z,64.38
2022-09-12T02:20:37.455Z,64.40
2022-09-12T02:23:12.362Z,64.42
2022-09-12T02:25:45.821Z,64.41
2022-09-12T02:28:18.802Z,64.49
2022-09-12T02:31:13.097Z,64.50
2022-09-12T02:33:56.826Z,64.61
2022-09-12T02:36:38.004Z,64.60
2022-09-12T02:39:06.643Z,64.67
2022-09-12T02:41:35.551Z,64.52
2022-09-12T02:44:05.210Z,64.65
2022-09-12T02:46:39.343Z,64.78
2022-09-12T02:49:09.487Z,64.92
2022-09-12T02:51:38.585Z,64.85
2022-09-12T02:54:07.715Z,64.85
2022-09-12T02:56:36.637Z,64.94
2022-09-12T02:59:08.310Z,64.95
2022-09-12T03:02:08.119Z,65.04
2022-09-12T03:04:55.504Z,65.05
2022-09-12T03:07:43.044Z,65.01
2022-09-12T03:10:33.221Z,64.97
2022-09-12T03:13:32.623Z,64.87
2022-09-12T03:16:15.927Z,64.94
2022-09-12T03:19:03.480Z,64.86
2022-09-12T03:21:45.696Z,64.80
2022-09-12T03:24:24.634Z,64.76
2022-09-12T03:26:59.514Z,64.69
2022-09-12T03:29:29.719Z,64.60
2022-09-12T03:31:59.415Z,64.56
2022-09-12T03:34:28.164Z,64.48
2022-09-12T03:36:57.058Z,64.39
2022-09-12T03:39:27.031Z,64.45
2022-09-12T03:41:56.066Z,64.36
2022-09-12T03:44:25.356Z,64.29
2022-09-12T03:46:54.246Z,64.27
2022-09-12T03:49:22.453Z,64.28
2022-09-12T03:51:51.010Z,64.30
2022-09-12T03:54:19.287Z,64.34
2022-09-12T03:56:47.477Z,64.36
2022-09-12T03:59:15.858Z,64.37
2022-09-12T04:01:44.311Z,64.43
2022-09-12T04:04:12.514Z,64.46
2022-09-12T04:06:41.748Z,64.51
2022-09-12T04:09:10.284Z,64.53
2022-09-12T04:11:38.492Z,64.61
2022-09-12T04:14:07.135Z,64.71
2022-09-12T04:16:35.690Z,64.78
2022-09-12T04:19:04.087Z,64.96
2022-09-12T04:21:32.699Z,65.08
2022-09-12T04:24:01.152Z,65.17
2022-09-12T04:26:30.035Z,65.16
2022-09-12T04:28:58.672Z,65.18
2022-09-12T04:31:27.390Z,65.22
2022-09-12T04:34:01.327Z,65.30
2022-09-12T04:36:29.993Z,65.27
2022-09-12T04:38:58.902Z,65.32
2022-09-12T04:41:33.600Z,65.29
2022-09-12T04:44:05.499Z,65.33
2022-09-12T04:46:37.046Z,65.33
2022-09-12T04:49:05.791Z,65.38
2022-09-12T04:51:36.709Z,65.43
2022-09-12T04:54:13.022Z,65.46
2022-09-12T04:56:44.111Z,65.48
2022-09-12T04:59:15.866Z,65.44
2022-09-12T05:01:44.410Z,65.42
2022-09-12T05:04:14.176Z,65.42
2022-09-12T05:06:43.628Z,65.41
2022-09-12T05:09:14.249Z,65.47
2022-09-12T05:12:04.166Z,65.51
2022-09-12T05:14:34.394Z,65.61
2022-09-12T05:17:04.941Z,65.57
2022-09-12T05:19:33.683Z,65.49
2022-09-12T05:22:02.669Z,65.44
2022-09-12T05:24:30.910Z,65.38
2022-09-12T05:26:59.425Z,65.23
2022-09-12T05:29:27.803Z,64.98
2022-09-12T05:31:55.995Z,64.75
2022-09-12T05:34:24.870Z,64.46
2022-09-12T05:36:53.649Z,64.37
2022-09-12T05:39:22.650Z,64.03
2022-09-12T05:41:51.026Z,63.64
2022-09-12T05:44:20.183Z,63.44
2022-09-12T05:46:51.476Z,63.08
2022-09-12T05:49:21.591Z,62.93
2022-09-12T05:51:50.990Z,62.75
2022-09-12T05:54:20.796Z,62.47
2022-09-12T05:56:49.490Z,62.25
2022-09-12T05:59:20.373Z,62.01
2022-09-12T06:01:49.326Z,61.83
2022-09-12T06:04:19.026Z,61.68
2022-09-12T06:06:48.925Z,61.57
2022-09-12T06:09:18.101Z,61.63
2022-09-12T06:11:46.715Z,61.45
2022-09-12T06:14:17.900Z,61.21
2022-09-12T06:16:47.854Z,60.76
2022-09-12T06:19:19.216Z,60.74
2022-09-12T06:21:49.956Z,60.46
2022-09-12T06:24:19.368Z,60.14
2022-09-12T06:26:48.975Z,59.94
2022-09-12T06:29:17.557Z,59.96
2022-09-12T06:31:46.143Z,60.05
2022-09-12T06:34:15.825Z,59.91
2022-09-12T06:36:47.206Z,59.91
2022-09-12T06:39:26.022Z,59.44
2022-09-12T06:41:54.800Z,59.43
2022-09-12T06:44:35.075Z,60.44
2022-09-12T06:47:03.546Z,61.20
2022-09-12T06:49:31.822Z,61.72
2022-09-12T06:52:03.181Z,62.94
2022-09-12T06:54:48.022Z,63.07
2022-09-12T06:57:19.957Z,62.67
2022-09-12T06:59:48.278Z,62.17
2022-09-12T07:02:16.882Z,61.75
2022-09-12T07:04:46.614Z,61.36
2022-09-12T07:07:26.703Z,60.46
2022-09-12T07:10:22.449Z,60.34
2022-09-12T07:13:01.066Z,59.85
2022-09-12T07:15:38.949Z,59.16
2022-09-12T07:18:11.018Z,58.83
2022-09-12T07:20:46.455Z,59.46
2022-09-12T07:23:26.322Z,60.11
2022-09-12T07:26:01.295Z,60.86
2022-09-12T07:28:32.029Z,61.31
2022-09-12T07:31:08.926Z,61.50
2022-09-12T07:33:38.558Z,61.93
2022-09-12T07:36:12.338Z,62.17
2022-09-12T07:38:41.688Z,62.71
2022-09-12T07:41:14.739Z,62.69
2022-09-12T07:43:43.960Z,61.73
2022-09-12T07:46:12.474Z,61.44
2022-09-12T07:48:41.233Z,60.19
2022-09-12T07:51:11.248Z,59.36
2022-09-12T07:53:41.777Z,59.01
2022-09-12T07:56:11.495Z,59.32
2022-09-12T07:58:41.930Z,60.13
2022-09-12T08:01:13.113Z,60.58
2022-09-12T08:03:43.149Z,60.62
2022-09-12T08:06:14.645Z,60.49
2022-09-12T08:08:43.788Z,60.55
2022-09-12T08:11:14.712Z,60.82
2022-09-12T08:13:44.329Z,60.98
2022-09-12T08:16:14.655Z,61.12
2022-09-12T08:18:42.867Z,61.01
2022-09-12T08:21:15.756Z,60.62
2022-09-12T08:23:45.429Z,60.38
2022-09-12T08:26:14.146Z,59.28
2022-09-12T08:28:45.809Z,58.80
2022-09-12T08:31:17.278Z,58.57
2022-09-12T08:33:46.038Z,58.87
2022-09-12T08:36:28.314Z,58.78
2022-09-12T08:39:05.176Z,58.44
2022-09-12T08:41:39.911Z,58.13
2022-09-12T08:44:09.525Z,58.14
2022-09-12T08:47:00.714Z,57.60
2022-09-12T08:49:48.897Z,57.67
2022-09-12T08:52:35.727Z,57.87
2022-09-12T08:55:07.156Z,57.25
2022-09-12T08:57:35.431Z,54.59
2022-09-12T09:00:07.106Z,54.57
